Time;durP1;ratioP1;P1;durP2;ratioP2;P2;SDS_P1;SDS_P2;PMS_P1;PMS_P2;Temp;Humidity;BMP_temperature;BMP_pressure;BME280_temperature;BME280_humidity;BME280_pressure;Samples;Min_cycle;Max_cycle;Signal;HPM_P1;HPM_P2
2024/01/14 00:01:57;;;;;;;21.43;12.43;;;;;;;-144.30;66.95;86726.63;5073633;28;20235;-59
2024/01/14 00:04:26;;;;;;;28.03;13.97;;;;;;;-144.30;67.46;86744.53;5074119;28;20553;-58
2024/01/14 00:06:52;;;;;;;27.60;14.50;;;;;;;-144.30;67.19;86722.66;5073784;28;20192;-58
2024/01/14 00:09:19;;;;;;;24.67;13.00;;;;;;;-144.30;67.28;86732.59;5073726;28;20192;-58
2024/01/14 00:11:46;;;;;;;26.07;13.93;;;;;;;-144.30;67.15;86722.66;5073783;28;20222;-58
2024/01/14 00:14:13;;;;;;;29.77;13.90;;;;;;;-144.30;67.31;86770.38;5073891;28;20203;-58
2024/01/14 00:16:40;;;;;;;25.93;13.33;;;;;;;-144.30;67.07;86740.53;5073447;28;20202;-60
2024/01/14 00:19:06;;;;;;;24.70;12.80;;;;;;;-144.30;67.08;86764.41;5073627;28;20215;-60
2024/01/14 00:21:34;;;;;;;26.40;13.13;;;;;;;-144.30;67.38;86768.38;5073465;28;20195;-59
2024/01/14 00:24:02;;;;;;;25.27;12.17;;;;;;;-144.30;67.87;86778.31;5073503;28;20195;-60
2024/01/14 00:26:29;;;;;;;27.47;12.00;;;;;;;-144.30;67.72;86796.22;5073748;28;20239;-59
2024/01/14 00:28:58;;;;;;;26.30;12.10;;;;;;;-144.30;68.14;86758.44;5073679;28;20671;-61
2024/01/14 00:31:25;;;;;;;24.03;11.97;;;;;;;-144.30;67.49;86764.41;5073498;28;20232;-59
2024/01/14 00:33:52;;;;;;;19.17;11.10;;;;;;;-144.30;68.21;86694.81;5073177;28;20691;-61
2024/01/14 00:36:19;;;;;;;27.93;13.00;;;;;;;-144.30;68.65;86778.31;5073151;28;20211;-61
2024/01/14 00:38:47;;;;;;;20.70;11.03;;;;;;;-144.30;68.59;86738.56;5073242;28;20602;-60
2024/01/14 00:41:14;;;;;;;27.27;12.10;;;;;;;-144.30;68.61;86788.28;5073260;28;20215;-59
2024/01/14 00:43:41;;;;;;;26.40;12.53;;;;;;;-144.30;68.95;86766.41;5073036;28;20217;-60
2024/01/14 00:46:08;;;;;;;24.40;12.07;;;;;;;-144.30;69.21;86786.28;5073157;28;20686;-59
2024/01/14 00:48:35;;;;;;;24.13;12.47;;;;;;;-144.30;68.92;86776.34;5072826;28;20590;-61
2024/01/14 00:51:02;;;;;;;26.47;12.60;;;;;;;-144.30;68.66;86794.25;5072988;28;20203;-60
2024/01/14 00:53:29;;;;;;;23.93;12.07;;;;;;;-144.30;68.68;86796.22;5073284;28;20648;-59
2024/01/14 00:55:57;;;;;;;24.90;12.87;;;;;;;-144.30;68.65;86776.34;5073257;28;20585;-59
2024/01/14 00:58:24;;;;;;;24.30;11.83;;;;;;;-144.30;68.07;86732.59;5072783;28;20256;-60
2024/01/14 01:00:51;;;;;;;22.53;12.70;;;;;;;-144.30;67.99;86748.50;5072531;28;20629;-60
2024/01/14 01:03:18;;;;;;;23.27;12.17;;;;;;;-144.30;68.33;86760.44;5072865;28;20650;-60
2024/01/14 01:05:45;;;;;;;24.10;12.30;;;;;;;-144.30;68.42;86804.19;5072464;28;20207;-59
2024/01/14 01:08:12;;;;;;;29.13;13.33;;;;;;;-144.30;69.40;86758.44;5072122;28;20205;-60
2024/01/14 01:10:39;;;;;;;30.07;13.63;;;;;;;-144.30;69.75;86774.34;5072445;28;20234;-60
2024/01/14 01:13:07;;;;;;;30.17;13.60;;;;;;;-144.30;69.86;86754.47;5072710;28;20220;-59
2024/01/14 01:15:34;;;;;;;28.87;13.10;;;;;;;-144.30;69.21;86764.41;5072452;28;20192;-60
2024/01/14 01:18:01;;;;;;;25.57;12.47;;;;;;;-144.30;69.05;86784.28;5072703;28;20297;-60
2024/01/14 01:20:28;;;;;;;24.87;13.10;;;;;;;-144.30;69.17;86776.34;5072592;28;20231;-59
2024/01/14 01:22:55;;;;;;;28.43;13.27;;;;;;;-144.30;70.29;86764.41;5072404;28;20213;-59
2024/01/14 01:25:22;;;;;;;32.07;15.37;;;;;;;-144.30;70.84;86780.31;5072508;28;20684;-59
2024/01/14 01:27:48;;;;;;;30.87;14.93;;;;;;;-144.30;70.49;86762.41;5072501;28;20200;-58
2024/01/14 01:30:17;;;;;;;22.50;12.30;;;;;;;-144.30;70.53;86792.25;5072165;28;20201;-60
2024/01/14 01:32:44;;;;;;;29.93;13.50;;;;;;;-144.30;70.91;86792.25;5072044;28;20209;-60
2024/01/14 01:35:11;;;;;;;27.73;12.87;;;;;;;-144.30;71.00;86772.34;5072448;28;20543;-59
2024/01/14 01:37:38;;;;;;;27.27;13.17;;;;;;;-144.30;71.29;86788.28;5072314;28;20678;-60
2024/01/14 01:40:07;;;;;;;26.13;13.27;;;;;;;-144.30;71.41;86788.28;5072180;28;20231;-59
2024/01/14 01:42:34;;;;;;;29.70;13.70;;;;;;;-144.30;70.78;86742.53;5072185;28;20584;-60
2024/01/14 01:45:01;;;;;;;27.00;13.30;;;;;;;-144.30;70.73;86772.34;5072119;28;20239;-60
2024/01/14 01:47:30;;;;;;;27.87;13.40;;;;;;;-144.30;70.79;86768.38;5072189;28;20665;-59
2024/01/14 01:49:57;;;;;;;31.93;14.67;;;;;;;-144.30;70.41;86714.69;5071794;28;20209;-60
2024/01/14 01:52:24;;;;;;;29.40;14.40;;;;;;;-144.30;70.24;86804.19;5070704;28;20211;-60
2024/01/14 01:54:52;;;;;;;30.10;14.73;;;;;;;-144.30;70.50;86774.34;5071817;28;20209;-59
2024/01/14 01:57:20;;;;;;;34.40;15.23;;;;;;;-144.30;70.79;86776.34;5071892;28;20199;-60
2024/01/14 01:59:47;;;;;;;29.53;14.30;;;;;;;-144.30;71.04;86756.44;5071900;28;20947;-59
2024/01/14 02:02:15;;;;;;;25.73;13.97;;;;;;;-144.30;70.49;86780.31;5071733;28;20230;-59
2024/01/14 02:04:43;;;;;;;28.17;14.73;;;;;;;-144.30;70.63;86810.16;5071476;28;20203;-60
2024/01/14 02:07:11;;;;;;;33.20;15.10;;;;;;;-144.30;70.48;86780.31;5071643;28;20231;-60
2024/01/14 02:09:39;;;;;;;26.47;14.20;;;;;;;-144.30;70.96;86754.47;5071371;28;20188;-59
2024/01/14 02:12:06;;;;;;;24.40;13.60;;;;;;;-144.30;70.03;86784.28;5071570;28;20200;-59
2024/01/14 02:14:34;;;;;;;30.17;14.03;;;;;;;-144.30;70.58;86792.25;5071775;28;20666;-60
2024/01/14 02:17:01;;;;;;;28.27;14.23;;;;;;;-144.30;70.79;86768.38;5071122;28;20197;-59
2024/01/14 02:19:28;;;;;;;29.13;13.90;;;;;;;-144.30;71.47;86786.28;5070617;28;20223;-58
2024/01/14 02:22:02;;;;;;;28.67;15.10;;;;;;;-144.30;71.98;86818.09;5071205;28;20203;-58
2024/01/14 02:24:31;;;;;;;30.70;14.53;;;;;;;-144.30;71.80;86780.31;5071157;28;20315;-60
2024/01/14 02:26:58;;;;;;;30.63;14.63;;;;;;;-144.30;72.42;86738.56;5071166;28;20699;-59
2024/01/14 02:29:27;;;;;;;28.10;14.57;;;;;;;-144.30;72.00;86784.28;5071190;28;20193;-58
2024/01/14 02:31:54;;;;;;;28.97;14.40;;;;;;;-144.30;71.88;86796.22;5071074;28;20199;-58
2024/01/14 02:34:21;;;;;;;32.20;14.97;;;;;;;-144.30;71.94;86792.25;5071019;28;20199;-59
2024/01/14 02:36:48;;;;;;;29.27;15.30;;;;;;;-144.30;72.05;86796.22;5070688;28;20207;-59
2024/01/14 02:39:16;;;;;;;35.43;15.07;;;;;;;-144.30;72.66;86762.41;5070682;28;20236;-60
2024/01/14 02:41:45;;;;;;;31.63;15.07;;;;;;;-144.30;71.76;86792.25;5070879;28;20665;-57
2024/01/14 02:44:12;;;;;;;28.77;14.23;;;;;;;-144.30;71.97;86768.38;5071019;28;20695;-60
2024/01/14 02:46:39;;;;;;;35.90;15.67;;;;;;;-144.30;71.67;86768.38;5061536;28;20210;-60
2024/01/14 02:49:06;;;;;;;31.63;14.23;;;;;;;-144.30;71.88;86772.34;5050906;28;20603;-59
2024/01/14 02:51:33;;;;;;;32.43;15.30;;;;;;;-144.30;71.89;86764.41;5050672;28;20208;-59
2024/01/14 02:54:01;;;;;;;25.60;14.13;;;;;;;-144.30;71.23;86762.41;5050721;28;20209;-58
2024/01/14 02:56:28;;;;;;;36.17;15.37;;;;;;;-144.30;71.64;86744.53;5050746;28;20674;-58
2024/01/14 02:58:57;;;;;;;29.30;14.57;;;;;;;-144.30;71.93;86788.28;5050410;28;20195;-60
2024/01/14 03:01:23;;;;;;;26.37;13.77;;;;;;;-144.30;72.05;87106.50;5050328;28;20228;-58
2024/01/14 03:03:50;;;;;;;30.07;14.23;;;;;;;-144.30;71.76;86770.38;5050907;28;20213;-58
2024/01/14 03:06:17;;;;;;;33.90;15.47;;;;;;;-144.30;72.58;86800.19;5050384;28;20687;-59
2024/01/14 03:08:45;;;;;;;28.70;13.87;;;;;;;-144.30;72.56;86800.19;5050122;28;20194;-58
2024/01/14 03:11:12;;;;;;;33.13;15.93;;;;;;;-144.30;72.94;86780.31;5050040;28;20206;-60
2024/01/14 03:13:39;;;;;;;33.77;15.57;;;;;;;-144.30;72.14;86774.34;5049300;28;20201;-59
2024/01/14 03:16:08;;;;;;;32.97;15.10;;;;;;;-144.30;71.96;86792.25;5049683;28;20284;-59
2024/01/14 03:18:34;;;;;;;29.77;14.37;;;;;;;-144.30;71.62;86794.25;5050089;28;20237;-61
2024/01/14 03:21:02;;;;;;;35.27;15.17;;;;;;;-144.30;71.90;86780.31;5050025;28;20252;-60
2024/01/14 03:23:28;;;;;;;32.03;15.37;;;;;;;-144.30;71.46;86802.19;5050081;28;20201;-59
2024/01/14 03:25:55;;;;;;;34.97;16.77;;;;;;;-144.30;71.62;86802.19;5050066;28;20202;-60
2024/01/14 03:28:22;;;;;;;29.53;15.73;;;;;;;-144.30;71.71;86764.41;5050058;28;20241;-60
2024/01/14 03:30:52;;;;;;;31.53;15.90;;;;;;;-144.30;71.84;86776.34;5049962;28;20189;-59
2024/01/14 03:33:20;;;;;;;34.90;17.13;;;;;;;-144.30;72.69;86796.22;5049895;28;20197;-60
2024/01/14 03:35:47;;;;;;;34.73;17.40;;;;;;;-144.30;72.81;86792.25;5049831;28;20582;-60
2024/01/14 03:38:14;;;;;;;35.37;17.07;;;;;;;-144.30;72.88;86766.41;5050188;28;20199;-58
2024/01/14 03:40:41;;;;;;;35.73;16.60;;;;;;;-144.30;73.56;86804.19;5049863;28;20262;-59
2024/01/14 03:43:08;;;;;;;36.37;16.03;;;;;;;-144.30;74.28;86796.22;5050285;28;20196;-58
2024/01/14 03:45:35;;;;;;;38.57;17.00;;;;;;;-144.30;74.24;86808.16;5049806;28;20585;-58
2024/01/14 03:48:02;;;;;;;37.53;16.33;;;;;;;-144.30;73.98;86792.25;5049897;28;20584;-60
2024/01/14 03:50:30;;;;;;;32.40;16.07;;;;;;;-144.30;73.82;86808.16;5049912;28;20382;-59
2024/01/14 03:52:57;;;;;;;34.37;15.63;;;;;;;-144.30;74.11;86764.41;5049732;28;20208;-60
2024/01/14 03:55:24;;;;;;;35.83;15.63;;;;;;;-144.30;74.15;86780.31;5049924;28;20708;-59
2024/01/14 03:57:51;;;;;;;37.60;17.27;;;;;;;-144.30;74.41;86752.47;5049770;28;20589;-61
2024/01/14 04:00:18;;;;;;;37.20;17.47;;;;;;;-144.30;75.06;86812.13;5049757;28;20222;-59
2024/01/14 04:02:46;;;;;;;38.27;17.80;;;;;;;-144.30;74.74;86798.22;5049378;28;20643;-60
2024/01/14 04:05:13;;;;;;;33.30;16.60;;;;;;;-144.30;74.47;86744.53;5050013;28;20202;-59
2024/01/14 04:07:41;;;;;;;38.23;17.10;;;;;;;-144.30;74.47;86812.13;5049643;28;20289;-59
2024/01/14 04:10:12;;;;;;;31.47;16.73;;;;;;;-144.30;74.26;86780.31;5049887;28;20595;-58
2024/01/14 04:12:40;;;;;;;35.20;18.03;;;;;;;-144.30;73.98;86776.34;5049589;28;20255;-58
2024/01/14 04:15:08;;;;;;;34.63;15.87;;;;;;;-144.30;74.29;86776.34;5049594;28;20289;-58
2024/01/14 04:17:35;;;;;;;35.87;17.00;;;;;;;-144.30;74.52;86804.19;5049392;28;20280;-58
2024/01/14 04:20:03;;;;;;;38.03;17.00;;;;;;;-144.30;74.39;86764.41;5049474;28;20233;-59
2024/01/14 04:22:30;;;;;;;33.83;16.33;;;;;;;-144.30;74.14;86806.16;5049648;28;20198;-59
2024/01/14 04:24:58;;;;;;;35.63;17.80;;;;;;;-144.30;74.03;86782.31;5049572;28;20584;-60
2024/01/14 04:27:25;;;;;;;34.67;18.10;;;;;;;-144.30;74.19;86792.25;5049436;28;20197;-59
2024/01/14 04:29:52;;;;;;;36.60;17.13;;;;;;;-144.30;74.07;86784.28;5049330;28;20193;-59
2024/01/14 04:32:19;;;;;;;35.03;15.93;;;;;;;-144.30;73.78;86832.03;5049439;28;20207;-57
2024/01/14 04:34:46;;;;;;;36.47;17.27;;;;;;;-144.30;73.54;86786.28;5049714;28;20733;-59
2024/01/14 04:37:14;;;;;;;33.57;16.17;;;;;;;-144.30;73.31;86788.28;5049259;28;20217;-58
2024/01/14 04:39:41;;;;;;;38.33;16.20;;;;;;;-144.30;73.70;86768.38;5048958;28;20581;-59
2024/01/14 04:42:09;;;;;;;31.40;15.73;;;;;;;-144.30;73.95;86792.25;5049401;28;20202;-58
2024/01/14 04:44:36;;;;;;;32.53;15.73;;;;;;;-144.30;73.90;86784.28;5052257;28;20234;-59
2024/01/14 04:47:04;;;;;;;37.97;16.43;;;;;;;-144.30;74.04;86798.22;5053065;28;20201;-59
2024/01/14 04:49:31;;;;;;;35.80;16.37;;;;;;;-144.30;74.21;86804.19;5053033;28;20200;-58
2024/01/14 04:51:57;;;;;;;34.43;15.00;;;;;;;-144.30;74.14;86788.28;5065056;28;20205;-58
2024/01/14 04:54:24;;;;;;;32.80;15.63;;;;;;;-144.30;74.78;86806.16;5062629;28;20205;-59
2024/01/14 04:56:52;;;;;;;32.97;16.17;;;;;;;-144.30;74.54;86784.28;5064622;28;20596;-59
2024/01/14 04:59:20;;;;;;;37.50;15.83;;;;;;;-144.30;74.92;86806.16;5065272;28;20237;-60
2024/01/14 05:01:47;;;;;;;31.70;15.57;;;;;;;-144.30;74.45;86808.16;5063647;28;20328;-62
2024/01/14 05:04:14;;;;;;;37.63;15.87;;;;;;;-144.30;74.09;86788.28;5064983;28;20193;-58
2024/01/14 05:06:41;;;;;;;37.10;17.17;;;;;;;-144.30;73.92;86784.28;5063326;28;20205;-58
2024/01/14 05:09:08;;;;;;;29.37;15.50;;;;;;;-144.30;74.15;86784.28;5065507;28;20201;-59
2024/01/14 05:11:35;;;;;;;31.87;15.50;;;;;;;-144.30;73.99;86788.28;5052365;28;20194;-59
2024/01/14 05:14:02;;;;;;;39.50;16.10;;;;;;;-144.30;74.50;86776.34;5054538;28;20204;-59
2024/01/14 05:16:30;;;;;;;31.50;15.27;;;;;;;-144.30;74.48;86764.41;5059188;28;20188;-59
2024/01/14 05:18:57;;;;;;;33.60;16.23;;;;;;;-144.30;74.89;86820.09;5071172;28;20230;-58
2024/01/14 05:21:24;;;;;;;32.63;15.20;;;;;;;-144.30;74.71;86782.31;5068588;28;20606;-59
2024/01/14 05:23:51;;;;;;;33.60;16.37;;;;;;;-144.30;75.40;86808.16;5060189;28;20197;-59
2024/01/14 05:26:18;;;;;;;34.03;16.00;;;;;;;-144.30;75.20;86804.19;5062092;28;20194;-58
2024/01/14 05:28:45;;;;;;;36.40;15.23;;;;;;;-144.30;74.99;86806.16;5062374;28;20197;-59
2024/01/14 05:31:12;;;;;;;35.43;15.23;;;;;;;-144.30;75.77;86762.41;5058066;28;20273;-59
2024/01/14 05:33:40;;;;;;;29.93;14.67;;;;;;;-144.30;76.81;86798.22;5060523;28;20197;-58
2024/01/14 05:36:07;;;;;;;33.03;15.90;;;;;;;-144.30;76.34;86798.22;5062687;28;20695;-58
2024/01/14 05:38:34;;;;;;;32.80;15.47;;;;;;;-144.30;76.30;86573.50;5062750;28;20203;-58
2024/01/14 05:41:01;;;;;;;40.70;16.37;;;;;;;-144.30;77.00;86764.41;5062114;28;20224;-60
2024/01/14 05:43:28;;;;;;;36.57;16.33;;;;;;;-144.30;77.04;86768.38;5069133;28;20210;-58
2024/01/14 05:45:55;;;;;;;39.60;16.87;;;;;;;-144.30;76.97;86796.22;5066528;28;20692;-59
2024/01/14 05:48:22;;;;;;;31.47;16.03;;;;;;;-144.30;76.51;86682.88;5063115;28;20694;-60
2024/01/14 05:50:50;;;;;;;34.77;16.27;;;;;;;-144.30;77.42;86812.13;5071745;28;20202;-61
2024/01/14 05:53:17;;;;;;;34.77;16.17;;;;;;;-144.30;77.67;86812.13;5071757;28;20206;-60
2024/01/14 05:55:44;;;;;;;35.73;16.43;;;;;;;-144.30;77.67;86832.03;5061782;28;20200;-59
2024/01/14 05:58:11;;;;;;;32.60;15.60;;;;;;;-144.30;77.37;86794.25;5056837;28;20207;-59
2024/01/14 06:00:38;;;;;;;36.00;15.83;;;;;;;-144.30;77.07;86812.13;5060903;28;20223;-61
2024/01/14 06:03:05;;;;;;;39.40;17.50;;;;;;;-144.30;76.66;86802.19;5060890;28;20313;-59
2024/01/14 06:05:32;;;;;;;40.93;17.90;;;;;;;-144.30;75.86;86804.19;5057960;28;20196;-58
2024/01/14 06:08:00;;;;;;;35.43;16.50;;;;;;;-144.30;76.26;86792.25;5063127;28;20200;-59
2024/01/14 06:10:27;;;;;;;33.40;15.60;;;;;;;-144.30;76.65;86784.28;5063286;28;20193;-60
2024/01/14 06:12:54;;;;;;;37.23;16.67;;;;;;;-144.30;75.81;86810.16;5062001;28;20198;-60
2024/01/14 06:15:21;;;;;;;37.67;16.40;;;;;;;-144.30;75.33;86836.00;5062124;28;20202;-58
2024/01/14 06:17:48;;;;;;;39.80;17.07;;;;;;;-144.30;75.93;86820.09;5060513;28;20198;-58
2024/01/14 06:20:14;;;;;;;38.70;16.70;;;;;;;-144.30;76.05;86796.22;5062365;28;20211;-58
2024/01/14 06:22:41;;;;;;;34.67;16.70;;;;;;;-144.30;74.99;86836.00;5058443;28;20208;-60
2024/01/14 06:25:10;;;;;;;34.83;17.17;;;;;;;-144.30;74.91;86800.19;5069601;28;20938;-61
2024/01/14 06:27:37;;;;;;;36.00;16.43;;;;;;;-144.30;75.62;86792.25;5061809;28;20207;-60
2024/01/14 06:30:05;;;;;;;38.00;17.17;;;;;;;-144.30;75.36;86836.00;5061358;28;20296;-61
2024/01/14 06:32:32;;;;;;;41.67;17.73;;;;;;;-144.30;75.83;86828.03;5065085;28;20200;-61
2024/01/14 06:35:00;;;;;;;33.10;15.93;;;;;;;-144.30;75.54;86820.09;5061076;28;20213;-61
2024/01/14 06:37:27;;;;;;;40.73;16.60;;;;;;;-144.30;75.09;86816.13;5061657;28;20703;-61
2024/01/14 06:39:54;;;;;;;39.60;16.70;;;;;;;-144.30;74.30;86820.09;5053510;28;20280;-60
2024/01/14 06:42:22;;;;;;;39.27;17.23;;;;;;;-144.30;73.34;86804.19;5070318;28;20228;-59
2024/01/14 06:44:49;;;;;;;37.37;16.23;;;;;;;-144.30;72.73;86786.28;5069979;28;20196;-59
2024/01/14 06:47:16;;;;;;;30.43;15.30;;;;;;;-144.30;72.15;86804.19;5069246;28;20199;-59
2024/01/14 06:49:43;;;;;;;37.70;16.73;;;;;;;-144.30;72.01;86800.19;5068682;28;20208;-60
2024/01/14 06:52:10;;;;;;;33.60;15.90;;;;;;;-144.30;71.54;86802.19;5069754;28;20592;-60
2024/01/14 06:54:39;;;;;;;40.23;16.53;;;;;;;-144.30;72.12;86824.06;5070112;28;20196;-61
2024/01/14 06:57:06;;;;;;;44.87;18.03;;;;;;;-144.30;72.31;86826.06;5070561;28;20208;-60
2024/01/14 06:59:34;;;;;;;33.90;16.83;;;;;;;-144.30;72.18;86808.16;5070597;28;20200;-61
2024/01/14 07:02:01;;;;;;;35.70;15.97;;;;;;;-144.30;71.66;86762.41;5069927;28;20231;-60
2024/01/14 07:04:28;;;;;;;32.67;15.40;;;;;;;-144.30;70.86;86839.97;5070776;28;20282;-60
2024/01/14 07:06:55;;;;;;;32.53;16.10;;;;;;;-144.30;71.31;86780.31;5070122;28;20200;-60
2024/01/14 07:09:22;;;;;;;35.10;17.17;;;;;;;-144.30;70.89;86782.31;5062433;28;20597;-59
2024/01/14 07:11:49;;;;;;;35.13;16.53;;;;;;;-144.30;70.12;86776.34;5059930;28;20231;-59
2024/01/14 07:14:16;;;;;;;32.60;15.93;;;;;;;-144.30;69.56;86780.31;5060488;28;20293;-58
2024/01/14 07:16:44;;;;;;;37.77;16.77;;;;;;;-144.30;69.89;86796.22;5061187;28;20753;-58
2024/01/14 07:19:11;;;;;;;30.40;14.93;;;;;;;-144.30;68.48;86778.31;5065711;28;20578;-58
2024/01/14 07:21:38;;;;;;;26.80;13.53;;;;;;;-144.30;68.13;86784.28;5070045;28;20226;-59
2024/01/14 07:24:05;;;;;;;32.50;14.53;;;;;;;-144.30;67.36;86684.84;5069614;28;20594;-59
2024/01/14 07:26:31;;;;;;;27.23;14.53;;;;;;;-144.30;67.26;86798.22;5070268;28;20192;-59
2024/01/14 07:28:58;;;;;;;31.43;16.00;;;;;;;-144.30;66.89;86778.31;5057860;28;20676;-61
2024/01/14 07:31:28;;;;;;;28.67;15.30;;;;;;;-144.30;67.19;86768.38;5050242;28;20205;-59
2024/01/14 07:33:57;;;;;;;27.90;14.57;;;;;;;-144.30;66.96;86772.34;5050259;28;20218;-59
2024/01/14 07:36:24;;;;;;;30.03;14.67;;;;;;;-144.30;66.72;86708.72;5051778;28;20718;-58
2024/01/14 07:38:52;;;;;;;32.20;15.67;;;;;;;-144.30;67.04;86784.28;5069636;28;20206;-58
2024/01/14 07:41:19;;;;;;;32.57;14.93;;;;;;;-144.30;65.91;86764.41;5069884;28;20223;-59
2024/01/14 07:43:46;;;;;;;28.10;14.37;;;;;;;-144.30;65.62;86754.47;5069937;28;20205;-60
2024/01/14 07:46:13;;;;;;;30.53;14.43;;;;;;;-144.30;64.56;86756.44;5070010;28;20200;-59
2024/01/14 07:48:41;;;;;;;25.87;13.53;;;;;;;-144.30;64.13;86744.53;5069725;28;20691;-59
2024/01/14 07:51:09;;;;;;;29.30;14.23;;;;;;;-144.30;63.91;86746.50;5070103;28;20210;-58
2024/01/14 07:53:36;;;;;;;35.07;16.47;;;;;;;-144.30;64.03;86740.53;5069787;28;20696;-59
2024/01/14 07:56:04;;;;;;;37.57;14.37;;;;;;;-144.30;63.19;86720.66;5069638;28;20204;-59
2024/01/14 07:58:31;;;;;;;30.57;14.67;;;;;;;-144.30;63.51;86736.56;5069696;28;20586;-59
2024/01/14 08:00:58;;;;;;;29.37;14.70;;;;;;;-144.30;63.21;86754.47;5069569;28;20825;-60
2024/01/14 08:03:25;;;;;;;28.20;15.17;;;;;;;-144.30;62.26;86639.13;5069926;28;20556;-60
2024/01/14 08:05:52;;;;;;;30.93;14.90;;;;;;;-144.30;62.33;86744.53;5069577;28;20287;-59
2024/01/14 08:08:20;;;;;;;28.47;15.83;;;;;;;-144.30;62.63;86766.41;5067975;28;20199;-59
2024/01/14 08:10:48;;;;;;;30.37;15.97;;;;;;;-144.30;63.26;86742.53;5069262;28;20226;-59
2024/01/14 08:13:15;;;;;;;29.60;14.63;;;;;;;-144.30;62.66;86692.81;5069743;28;20595;-58
2024/01/14 08:15:42;;;;;;;30.37;14.70;;;;;;;-144.30;62.85;86720.66;5069454;28;20546;-58
2024/01/14 08:18:09;;;;;;;30.43;15.60;;;;;;;-144.30;63.29;86766.41;5070278;28;20199;-59
2024/01/14 08:20:36;;;;;;;30.87;14.90;;;;;;;-144.30;63.05;86696.78;5073259;28;20199;-59
2024/01/14 08:23:03;;;;;;;32.47;15.67;;;;;;;-144.30;62.71;86651.06;5073148;28;20309;-58
2024/01/14 08:25:31;;;;;;;28.50;16.10;;;;;;;-144.30;62.06;86704.75;5073670;28;20236;-59
2024/01/14 08:27:58;;;;;;;30.60;14.67;;;;;;;-144.30;61.33;86716.69;5073213;28;20286;-58
2024/01/14 08:30:25;;;;;;;33.57;15.03;;;;;;;-144.30;61.09;86738.56;5073360;28;20210;-59
2024/01/14 08:32:52;;;;;;;39.27;15.40;;;;;;;-144.30;60.40;86726.63;5073317;28;20673;-59
2024/01/14 08:35:19;;;;;;;32.10;15.70;;;;;;;-144.30;60.14;86716.69;5073381;28;20197;-60
2024/01/14 08:37:47;;;;;;;28.00;13.93;;;;;;;-144.30;60.30;86744.53;5071334;28;20201;-59
2024/01/14 08:40:15;;;;;;;30.23;14.20;;;;;;;-144.30;59.83;86696.78;5073302;28;20554;-60
2024/01/14 08:42:44;;;;;;;27.20;14.83;;;;;;;-144.30;59.56;86692.81;5073120;28;20224;-59
2024/01/14 08:45:12;;;;;;;36.43;15.80;;;;;;;-144.30;59.09;86668.94;5073165;28;20698;-59
2024/01/14 08:47:39;;;;;;;29.90;15.13;;;;;;;-144.30;59.08;86720.66;5072815;28;20254;-61
2024/01/14 08:50:09;;;;;;;25.90;13.93;;;;;;;-144.30;58.74;86666.97;5072736;28;20248;-59
2024/01/14 08:52:36;;;;;;;30.07;15.53;;;;;;;-144.30;58.90;86682.88;5073360;28;20198;-59
2024/01/14 08:55:03;;;;;;;29.87;15.00;;;;;;;-144.30;58.35;86720.66;5072854;28;20220;-59
2024/01/14 08:57:30;;;;;;;32.87;15.93;;;;;;;-144.30;57.87;86676.91;5072647;28;20284;-59
2024/01/14 08:59:59;;;;;;;27.37;15.23;;;;;;;-144.30;57.67;86712.69;5072453;28;20276;-60
2024/01/14 09:02:26;;;;;;;32.00;15.90;;;;;;;-144.30;58.21;86581.44;5072596;28;20233;-59
2024/01/14 09:04:53;;;;;;;35.27;15.63;;;;;;;-144.30;57.83;86678.88;5063628;28;21284;-59
2024/01/14 09:07:20;;;;;;;35.10;15.70;;;;;;;-144.30;57.50;86684.84;5052627;28;20252;-60
2024/01/14 09:09:48;;;;;;;31.77;15.87;;;;;;;-144.30;58.05;86680.88;5053219;28;20671;-61
2024/01/14 09:12:14;;;;;;;31.43;14.93;;;;;;;-144.30;58.28;86728.59;5072097;28;20200;-60
2024/01/14 09:14:41;;;;;;;31.40;15.33;;;;;;;-144.30;58.71;86694.81;5071351;28;20196;-60
2024/01/14 09:17:11;;;;;;;30.10;16.10;;;;;;;-144.30;58.97;86694.81;5064940;28;20201;-59
2024/01/14 09:19:38;;;;;;;35.20;15.40;;;;;;;-144.30;59.11;86732.59;5071426;28;20224;-59
2024/01/14 09:22:05;;;;;;;28.97;14.43;;;;;;;-144.30;58.52;86672.94;5069979;28;20230;-59
2024/01/14 09:24:31;;;;;;;34.80;16.00;;;;;;;-144.30;58.04;86716.69;5071683;28;20220;-60
2024/01/14 09:26:58;;;;;;;32.53;16.40;;;;;;;-144.30;58.28;86722.66;5071694;28;20193;-61
2024/01/14 09:29:25;;;;;;;31.07;16.47;;;;;;;-144.30;58.49;86704.75;5071361;28;20213;-61
2024/01/14 09:31:52;;;;;;;33.97;16.30;;;;;;;-144.30;58.52;86692.81;5071193;28;20192;-62
2024/01/14 09:34:20;;;;;;;30.50;16.03;;;;;;;-144.30;59.14;86684.84;5071654;28;20647;-59
2024/01/14 09:36:47;;;;;;;36.97;16.57;;;;;;;-144.30;59.51;86629.19;5071412;28;20706;-58
2024/01/14 09:39:14;;;;;;;42.20;17.53;;;;;;;-144.30;59.28;86661.00;5071650;28;20193;-58
2024/01/14 09:41:45;;;;;;;36.73;18.10;;;;;;;-144.30;59.20;86661.00;5070943;28;20316;-62
2024/01/14 09:44:16;;;;;;;38.03;18.27;;;;;;;-144.30;59.61;86688.84;5071271;28;20222;-62
2024/01/14 09:46:45;;;;;;;35.70;18.90;;;;;;;-144.30;59.28;86672.94;5070986;28;20205;-61
2024/01/14 09:49:12;;;;;;;40.60;18.93;;;;;;;-144.30;59.12;86718.66;5071210;28;20266;-60
2024/01/14 09:51:42;;;;;;;39.40;17.57;;;;;;;-144.30;59.49;86706.72;5071100;28;20197;-60
2024/01/14 09:54:09;;;;;;;35.87;17.90;;;;;;;-144.30;58.66;86686.84;5070733;28;20585;-59
2024/01/14 09:56:39;;;;;;;34.37;17.37;;;;;;;-144.30;58.54;86661.00;5069342;28;20227;-58
2024/01/14 09:59:07;;;;;;;36.77;18.17;;;;;;;-144.30;58.75;86664.97;5071470;28;20199;-57
2024/01/14 10:01:35;;;;;;;36.30;19.20;;;;;;;-144.30;58.95;86680.88;5069439;28;20679;-60
2024/01/14 10:04:03;;;;;;;40.17;18.80;;;;;;;-144.30;58.76;86696.78;5050668;28;20196;-61
2024/01/14 10:06:31;;;;;;;35.67;18.07;;;;;;;-144.30;59.00;86682.88;5056471;28;20214;-60
2024/01/14 10:08:59;;;;;;;40.80;23.13;;;;;;;-144.30;59.36;86690.81;5049904;28;20823;-61
2024/01/14 10:11:27;;;;;;;32.40;18.83;;;;;;;-144.30;59.13;86668.94;5050611;28;20622;-60
2024/01/14 10:13:54;;;;;;;43.70;22.77;;;;;;;-144.30;59.12;86696.78;5055741;28;20883;-60
2024/01/14 10:16:22;;;;;;;38.63;19.87;;;;;;;-144.30;58.44;86664.97;5070616;28;20451;-60
2024/01/14 10:18:49;;;;;;;46.50;21.03;;;;;;;-144.30;57.89;86672.94;5070661;28;20552;-59
2024/01/14 10:21:16;;;;;;;45.00;21.33;;;;;;;-144.30;57.93;86661.00;5070602;28;20546;-62
2024/01/14 10:23:43;;;;;;;50.27;23.87;;;;;;;-144.30;57.78;86666.97;5070557;28;20200;-59
2024/01/14 10:26:11;;;;;;;43.93;22.37;;;;;;;-144.30;57.70;86664.97;5064978;28;20217;-60
2024/01/14 10:28:39;;;;;;;48.23;22.73;;;;;;;-144.30;57.56;86651.06;5070490;28;20199;-59
2024/01/14 10:31:07;;;;;;;44.27;22.40;;;;;;;-144.30;57.30;86649.06;5068393;28;20203;-59
2024/01/14 10:33:35;;;;;;;48.03;24.10;;;;;;;-144.30;57.37;86692.81;5064017;28;20227;-59
2024/01/14 10:36:07;;;;;;;50.73;24.43;;;;;;;-144.30;57.67;86565.53;5060636;28;20766;-59
2024/01/14 10:38:34;;;;;;;55.60;25.70;;;;;;;-144.30;57.58;86672.94;5061162;28;20191;-61
2024/01/14 10:41:03;;;;;;;51.80;26.23;;;;;;;-144.30;56.98;86657.03;5058831;28;20591;-64
2024/01/14 10:43:33;;;;;;;56.10;25.37;;;;;;;-144.30;56.72;86625.19;5059137;28;20218;-60
2024/01/14 10:46:00;;;;;;;59.35;30.65;;;;;;;-144.30;56.82;86657.03;5057615;28;20455;-63
2024/01/14 10:48:28;;;;;;;63.43;26.97;;;;;;;-144.30;57.07;86653.03;5054644;28;20204;-60
2024/01/14 10:50:56;;;;;;;50.00;25.10;;;;;;;-144.30;56.63;86637.13;5057228;28;20204;-58
2024/01/14 10:53:25;;;;;;;57.83;27.47;;;;;;;-144.30;56.51;86452.19;5056968;28;20586;-57
2024/01/14 10:56:01;;;;;;;53.83;26.17;;;;;;;-144.30;56.85;86507.88;5057832;28;20287;-58
2024/01/14 10:58:35;;;;;;;52.93;24.27;;;;;;;-144.30;56.46;86649.06;5064551;28;20192;-61
2024/01/14 11:01:06;;;;;;;52.57;25.30;;;;;;;-144.30;56.62;86645.09;5061864;28;20200;-60
2024/01/14 11:03:34;;;;;;;56.20;25.73;;;;;;;-144.30;56.46;86635.13;5067546;28;20318;-61